sensor_id;sensor_type;location;lat;lon;timestamp;P1;durP1;ratioP1;P2;durP2;ratioP2
6955;SDS011;50345;51.136;16.886;2023-03-03T00:00:21;58.50;;;39.47;;
6955;SDS011;50345;51.136;16.886;2023-03-03T00:02:47;57.40;;;35.40;;
6955;SDS011;50345;51.136;16.886;2023-03-03T00:05:13;59.03;;;36.57;;
6955;SDS011;50345;51.136;16.886;2023-03-03T00:07:42;68.43;;;37.63;;
6955;SDS011;50345;51.136;16.886;2023-03-03T00:10:08;56.40;;;35.72;;
6955;SDS011;50345;51.136;16.886;2023-03-03T00:12:34;52.65;;;33.42;;
6955;SDS011;50345;51.136;16.886;2023-03-03T00:15:13;56.50;;;33.10;;
6955;SDS011;50345;51.136;16.886;2023-03-03T00:17:39;55.85;;;32.90;;
6955;SDS011;50345;51.136;16.886;2023-03-03T00:23:16;55.85;;;33.50;;
6955;SDS011;50345;51.136;16.886;2023-03-03T00:25:55;52.53;;;32.17;;
6955;SDS011;50345;51.136;16.886;2023-03-03T00:28:23;52.60;;;31.48;;
6955;SDS011;50345;51.136;16.886;2023-03-03T00:30:52;56.08;;;34.88;;
6955;SDS011;50345;51.136;16.886;2023-03-03T00:33:30;56.63;;;35.60;;
6955;SDS011;50345;51.136;16.886;2023-03-03T00:38:59;50.15;;;33.67;;
6955;SDS011;50345;51.136;16.886;2023-03-03T00:41:53;57.30;;;34.38;;
6955;SDS011;50345;51.136;16.886;2023-03-03T00:44:31;62.00;;;36.47;;
6955;SDS011;50345;51.136;16.886;2023-03-03T00:47:02;62.10;;;33.60;;
6955;SDS011;50345;51.136;16.886;2023-03-03T00:49:48;58.30;;;34.47;;
6955;SDS011;50345;51.136;16.886;2023-03-03T00:52:15;60.93;;;36.30;;
6955;SDS011;50345;51.136;16.886;2023-03-03T00:54:42;65.65;;;36.65;;
6955;SDS011;50345;51.136;16.886;2023-03-03T00:57:07;61.30;;;33.87;;
6955;SDS011;50345;51.136;16.886;2023-03-03T00:59:33;64.23;;;36.07;;
6955;SDS011;50345;51.136;16.886;2023-03-03T01:01:59;62.73;;;36.20;;
6955;SDS011;50345;51.136;16.886;2023-03-03T01:04:24;64.07;;;34.80;;
6955;SDS011;50345;51.136;16.886;2023-03-03T01:06:50;69.00;;;36.00;;
6955;SDS011;50345;51.136;16.886;2023-03-03T01:09:15;73.17;;;36.37;;
6955;SDS011;50345;51.136;16.886;2023-03-03T01:11:41;72.00;;;36.67;;
6955;SDS011;50345;51.136;16.886;2023-03-03T01:14:06;61.37;;;35.00;;
6955;SDS011;50345;51.136;16.886;2023-03-03T01:16:32;62.67;;;36.40;;
6955;SDS011;50345;51.136;16.886;2023-03-03T01:18:58;67.20;;;36.00;;
6955;SDS011;50345;51.136;16.886;2023-03-03T01:21:24;58.17;;;34.33;;
6955;SDS011;50345;51.136;16.886;2023-03-03T01:23:49;59.00;;;33.20;;
6955;SDS011;50345;51.136;16.886;2023-03-03T01:26:15;53.57;;;33.23;;
6955;SDS011;50345;51.136;16.886;2023-03-03T01:28:40;54.03;;;32.97;;
6955;SDS011;50345;51.136;16.886;2023-03-03T01:31:06;53.10;;;33.33;;
6955;SDS011;50345;51.136;16.886;2023-03-03T01:33:32;56.07;;;32.77;;
6955;SDS011;50345;51.136;16.886;2023-03-03T01:35:59;52.22;;;34.22;;
6955;SDS011;50345;51.136;16.886;2023-03-03T01:38:24;49.77;;;30.90;;
6955;SDS011;50345;51.136;16.886;2023-03-03T01:40:52;55.00;;;30.57;;
6955;SDS011;50345;51.136;16.886;2023-03-03T01:43:19;49.33;;;29.83;;
6955;SDS011;50345;51.136;16.886;2023-03-03T01:50:48;47.83;;;30.67;;
6955;SDS011;50345;51.136;16.886;2023-03-03T01:53:19;42.97;;;30.27;;
6955;SDS011;50345;51.136;16.886;2023-03-03T01:55:48;52.63;;;31.30;;
6955;SDS011;50345;51.136;16.886;2023-03-03T01:58:21;53.67;;;31.85;;
6955;SDS011;50345;51.136;16.886;2023-03-03T02:00:58;53.67;;;34.13;;
6955;SDS011;50345;51.136;16.886;2023-03-03T02:03:26;53.95;;;33.38;;
6955;SDS011;50345;51.136;16.886;2023-03-03T02:05:54;49.03;;;31.25;;
6955;SDS011;50345;51.136;16.886;2023-03-03T02:08:23;49.10;;;31.73;;
6955;SDS011;50345;51.136;16.886;2023-03-03T02:10:52;49.65;;;30.75;;
6955;SDS011;50345;51.136;16.886;2023-03-03T02:13:19;47.33;;;29.63;;
6955;SDS011;50345;51.136;16.886;2023-03-03T02:15:45;48.37;;;30.90;;
6955;SDS011;50345;51.136;16.886;2023-03-03T02:18:14;52.17;;;33.07;;
6955;SDS011;50345;51.136;16.886;2023-03-03T02:20:56;45.55;;;30.20;;
6955;SDS011;50345;51.136;16.886;2023-03-03T02:23:31;51.55;;;31.92;;
6955;SDS011;50345;51.136;16.886;2023-03-03T02:26:31;51.88;;;32.17;;
6955;SDS011;50345;51.136;16.886;2023-03-03T02:29:00;55.00;;;31.48;;
6955;SDS011;50345;51.136;16.886;2023-03-03T02:31:26;49.57;;;31.57;;
6955;SDS011;50345;51.136;16.886;2023-03-03T02:33:54;53.90;;;34.58;;
6955;SDS011;50345;51.136;16.886;2023-03-03T02:36:21;55.17;;;31.80;;
6955;SDS011;50345;51.136;16.886;2023-03-03T02:39:00;55.38;;;30.10;;
6955;SDS011;50345;51.136;16.886;2023-03-03T02:41:48;50.53;;;31.95;;
6955;SDS011;50345;51.136;16.886;2023-03-03T02:44:16;51.60;;;31.83;;
6955;SDS011;50345;51.136;16.886;2023-03-03T02:46:47;56.20;;;32.20;;
6955;SDS011;50345;51.136;16.886;2023-03-03T02:49:15;49.30;;;31.45;;
6955;SDS011;50345;51.136;16.886;2023-03-03T02:51:43;45.47;;;30.42;;
6955;SDS011;50345;51.136;16.886;2023-03-03T02:54:09;48.30;;;30.83;;
6955;SDS011;50345;51.136;16.886;2023-03-03T02:56:37;48.17;;;30.35;;
6955;SDS011;50345;51.136;16.886;2023-03-03T02:59:03;49.65;;;29.38;;
6955;SDS011;50345;51.136;16.886;2023-03-03T03:01:29;43.00;;;29.38;;
6955;SDS011;50345;51.136;16.886;2023-03-03T03:04:00;40.65;;;26.63;;
6955;SDS011;50345;51.136;16.886;2023-03-03T03:06:29;45.72;;;28.00;;
6955;SDS011;50345;51.136;16.886;2023-03-03T03:08:55;44.43;;;28.50;;
6955;SDS011;50345;51.136;16.886;2023-03-03T03:11:20;43.87;;;27.77;;
6955;SDS011;50345;51.136;16.886;2023-03-03T03:13:46;43.77;;;25.90;;
6955;SDS011;50345;51.136;16.886;2023-03-03T03:16:11;38.70;;;25.97;;
6955;SDS011;50345;51.136;16.886;2023-03-03T03:18:37;43.60;;;28.10;;
6955;SDS011;50345;51.136;16.886;2023-03-03T03:21:07;40.00;;;25.73;;
6955;SDS011;50345;51.136;16.886;2023-03-03T03:23:34;42.78;;;26.55;;
6955;SDS011;50345;51.136;16.886;2023-03-03T03:26:00;42.72;;;28.13;;
6955;SDS011;50345;51.136;16.886;2023-03-03T03:28:25;43.53;;;28.47;;
6955;SDS011;50345;51.136;16.886;2023-03-03T03:30:51;46.57;;;30.67;;
6955;SDS011;50345;51.136;16.886;2023-03-03T03:33:17;49.00;;;32.43;;
6955;SDS011;50345;51.136;16.886;2023-03-03T03:35:42;39.60;;;29.00;;
6955;SDS011;50345;51.136;16.886;2023-03-03T03:38:11;44.08;;;26.75;;
6955;SDS011;50345;51.136;16.886;2023-03-03T03:40:37;43.20;;;26.67;;
6955;SDS011;50345;51.136;16.886;2023-03-03T03:43:03;39.22;;;25.45;;
6955;SDS011;50345;51.136;16.886;2023-03-03T03:45:29;39.63;;;26.90;;
6955;SDS011;50345;51.136;16.886;2023-03-03T03:47:55;44.27;;;26.30;;
6955;SDS011;50345;51.136;16.886;2023-03-03T03:50:20;38.73;;;25.77;;
6955;SDS011;50345;51.136;16.886;2023-03-03T03:52:46;33.70;;;23.70;;
6955;SDS011;50345;51.136;16.886;2023-03-03T03:55:12;43.13;;;25.27;;
6955;SDS011;50345;51.136;16.886;2023-03-03T03:57:38;44.70;;;27.02;;
6955;SDS011;50345;51.136;16.886;2023-03-03T04:00:05;42.35;;;25.55;;
6955;SDS011;50345;51.136;16.886;2023-03-03T04:02:32;34.15;;;23.85;;
6955;SDS011;50345;51.136;16.886;2023-03-03T04:04:59;40.85;;;24.45;;
6955;SDS011;50345;51.136;16.886;2023-03-03T04:07:24;37.87;;;25.00;;
6955;SDS011;50345;51.136;16.886;2023-03-03T04:09:50;35.30;;;22.23;;
6955;SDS011;50345;51.136;16.886;2023-03-03T04:12:16;33.37;;;20.63;;
6955;SDS011;50345;51.136;16.886;2023-03-03T04:14:41;32.90;;;21.67;;
6955;SDS011;50345;51.136;16.886;2023-03-03T04:17:07;30.63;;;20.73;;
6955;SDS011;50345;51.136;16.886;2023-03-03T04:19:36;51.60;;;30.13;;
6955;SDS011;50345;51.136;16.886;2023-03-03T04:22:01;44.10;;;24.93;;
6955;SDS011;50345;51.136;16.886;2023-03-03T04:24:27;36.13;;;23.83;;
6955;SDS011;50345;51.136;16.886;2023-03-03T04:26:52;29.50;;;20.90;;
6955;SDS011;50345;51.136;16.886;2023-03-03T04:29:18;36.87;;;20.27;;
6955;SDS011;50345;51.136;16.886;2023-03-03T04:31:43;35.83;;;22.80;;
6955;SDS011;50345;51.136;16.886;2023-03-03T04:34:09;28.63;;;19.00;;
6955;SDS011;50345;51.136;16.886;2023-03-03T04:36:34;22.13;;;17.80;;
6955;SDS011;50345;51.136;16.886;2023-03-03T04:39:00;29.23;;;19.30;;
6955;SDS011;50345;51.136;16.886;2023-03-03T04:41:26;28.83;;;20.38;;
6955;SDS011;50345;51.136;16.886;2023-03-03T04:43:52;26.03;;;17.33;;
6955;SDS011;50345;51.136;16.886;2023-03-03T04:46:17;23.00;;;15.50;;
6955;SDS011;50345;51.136;16.886;2023-03-03T04:48:43;23.43;;;16.27;;
6955;SDS011;50345;51.136;16.886;2023-03-03T04:51:08;24.17;;;17.93;;
6955;SDS011;50345;51.136;16.886;2023-03-03T04:53:34;23.30;;;16.13;;
6955;SDS011;50345;51.136;16.886;2023-03-03T04:56:02;23.23;;;15.50;;
6955;SDS011;50345;51.136;16.886;2023-03-03T04:58:28;23.55;;;16.58;;
6955;SDS011;50345;51.136;16.886;2023-03-03T05:00:55;24.95;;;16.20;;
6955;SDS011;50345;51.136;16.886;2023-03-03T05:03:21;22.92;;;15.93;;
6955;SDS011;50345;51.136;16.886;2023-03-03T05:05:47;25.30;;;16.67;;
6955;SDS011;50345;51.136;16.886;2023-03-03T05:08:13;23.67;;;15.30;;
6955;SDS011;50345;51.136;16.886;2023-03-03T05:10:38;25.30;;;17.43;;
6955;SDS011;50345;51.136;16.886;2023-03-03T05:13:04;27.90;;;19.00;;
6955;SDS011;50345;51.136;16.886;2023-03-03T05:15:31;27.15;;;16.42;;
6955;SDS011;50345;51.136;16.886;2023-03-03T05:17:56;26.73;;;15.70;;
6955;SDS011;50345;51.136;16.886;2023-03-03T05:20:23;23.10;;;15.30;;
6955;SDS011;50345;51.136;16.886;2023-03-03T05:22:49;23.50;;;15.13;;
6955;SDS011;50345;51.136;16.886;2023-03-03T05:25:15;23.87;;;15.27;;
6955;SDS011;50345;51.136;16.886;2023-03-03T05:27:40;23.13;;;15.30;;
6955;SDS011;50345;51.136;16.886;2023-03-03T05:30:08;23.73;;;14.52;;
6955;SDS011;50345;51.136;16.886;2023-03-03T05:32:34;23.50;;;15.18;;
6955;SDS011;50345;51.136;16.886;2023-03-03T05:35:00;24.50;;;15.83;;
6955;SDS011;50345;51.136;16.886;2023-03-03T05:37:25;22.23;;;16.03;;
6955;SDS011;50345;51.136;16.886;2023-03-03T05:39:51;19.23;;;13.60;;
6955;SDS011;50345;51.136;16.886;2023-03-03T05:42:17;20.40;;;14.10;;
6955;SDS011;50345;51.136;16.886;2023-03-03T05:44:42;21.47;;;13.63;;
6955;SDS011;50345;51.136;16.886;2023-03-03T05:47:08;25.00;;;14.00;;
6955;SDS011;50345;51.136;16.886;2023-03-03T05:49:34;20.17;;;13.63;;
6955;SDS011;50345;51.136;16.886;2023-03-03T05:51:59;21.73;;;12.63;;
6955;SDS011;50345;51.136;16.886;2023-03-03T05:54:25;18.33;;;12.03;;
6955;SDS011;50345;51.136;16.886;2023-03-03T05:56:51;24.87;;;13.53;;
6955;SDS011;50345;51.136;16.886;2023-03-03T05:59:16;22.50;;;12.87;;
6955;SDS011;50345;51.136;16.886;2023-03-03T06:01:43;19.15;;;12.93;;
6955;SDS011;50345;51.136;16.886;2023-03-03T06:04:08;21.83;;;14.40;;
6955;SDS011;50345;51.136;16.886;2023-03-03T06:06:34;23.77;;;13.43;;
6955;SDS011;50345;51.136;16.886;2023-03-03T06:09:00;19.53;;;14.90;;
6955;SDS011;50345;51.136;16.886;2023-03-03T06:11:25;23.57;;;14.80;;
6955;SDS011;50345;51.136;16.886;2023-03-03T06:13:51;20.17;;;13.10;;
6955;SDS011;50345;51.136;16.886;2023-03-03T06:16:16;15.90;;;11.30;;
6955;SDS011;50345;51.136;16.886;2023-03-03T06:18:43;19.80;;;12.90;;
6955;SDS011;50345;51.136;16.886;2023-03-03T06:21:08;14.63;;;10.63;;
6955;SDS011;50345;51.136;16.886;2023-03-03T06:23:34;20.23;;;14.00;;
6955;SDS011;50345;51.136;16.886;2023-03-03T06:25:59;23.00;;;12.83;;
6955;SDS011;50345;51.136;16.886;2023-03-03T06:28:25;16.00;;;11.23;;
6955;SDS011;50345;51.136;16.886;2023-03-03T06:30:54;18.00;;;12.20;;
6955;SDS011;50345;51.136;16.886;2023-03-03T06:33:21;19.80;;;14.05;;
6955;SDS011;50345;51.136;16.886;2023-03-03T06:35:50;21.27;;;13.57;;
6955;SDS011;50345;51.136;16.886;2023-03-03T06:38:17;20.80;;;13.30;;
6955;SDS011;50345;51.136;16.886;2023-03-03T06:40:43;30.95;;;16.50;;
6955;SDS011;50345;51.136;16.886;2023-03-03T06:43:09;25.55;;;13.55;;
6955;SDS011;50345;51.136;16.886;2023-03-03T06:45:35;25.60;;;14.37;;
6955;SDS011;50345;51.136;16.886;2023-03-03T06:48:01;20.70;;;13.50;;
6955;SDS011;50345;51.136;16.886;2023-03-03T06:50:26;21.80;;;12.70;;
6955;SDS011;50345;51.136;16.886;2023-03-03T06:53:14;21.13;;;12.97;;
6955;SDS011;50345;51.136;16.886;2023-03-03T06:55:39;24.50;;;13.82;;
6955;SDS011;50345;51.136;16.886;2023-03-03T06:58:12;22.33;;;13.75;;
6955;SDS011;50345;51.136;16.886;2023-03-03T07:00:43;25.40;;;14.63;;
6955;SDS011;50345;51.136;16.886;2023-03-03T07:03:16;32.75;;;15.75;;
6955;SDS011;50345;51.136;16.886;2023-03-03T07:05:44;27.23;;;15.35;;
6955;SDS011;50345;51.136;16.886;2023-03-03T07:08:20;28.63;;;16.57;;
6955;SDS011;50345;51.136;16.886;2023-03-03T07:10:48;24.45;;;15.55;;
6955;SDS011;50345;51.136;16.886;2023-03-03T07:13:22;25.38;;;15.50;;
6955;SDS011;50345;51.136;16.886;2023-03-03T07:15:51;28.85;;;16.92;;
6955;SDS011;50345;51.136;16.886;2023-03-03T07:18:25;27.92;;;17.25;;
6955;SDS011;50345;51.136;16.886;2023-03-03T07:20:58;25.73;;;15.82;;
6955;SDS011;50345;51.136;16.886;2023-03-03T07:23:30;27.65;;;16.73;;
6955;SDS011;50345;51.136;16.886;2023-03-03T07:26:11;29.35;;;17.83;;
6955;SDS011;50345;51.136;16.886;2023-03-03T07:28:40;28.00;;;17.25;;
6955;SDS011;50345;51.136;16.886;2023-03-03T07:31:16;22.30;;;15.35;;
6955;SDS011;50345;51.136;16.886;2023-03-03T07:33:51;24.60;;;15.63;;
6955;SDS011;50345;51.136;16.886;2023-03-03T07:36:30;28.52;;;14.98;;
6955;SDS011;50345;51.136;16.886;2023-03-03T07:39:00;20.17;;;14.30;;
6955;SDS011;50345;51.136;16.886;2023-03-03T07:41:29;25.23;;;14.88;;
6955;SDS011;50345;51.136;16.886;2023-03-03T07:49:59;23.23;;;16.27;;
6955;SDS011;50345;51.136;16.886;2023-03-03T07:52:38;20.90;;;14.88;;
6955;SDS011;50345;51.136;16.886;2023-03-03T07:55:26;22.48;;;15.77;;
6955;SDS011;50345;51.136;16.886;2023-03-03T07:57:58;22.95;;;15.38;;
6955;SDS011;50345;51.136;16.886;2023-03-03T08:03:44;17.02;;;12.73;;
6955;SDS011;50345;51.136;16.886;2023-03-03T08:06:27;19.85;;;12.80;;
6955;SDS011;50345;51.136;16.886;2023-03-03T08:09:01;17.40;;;12.73;;
6955;SDS011;50345;51.136;16.886;2023-03-03T08:11:53;18.05;;;13.68;;
6955;SDS011;50345;51.136;16.886;2023-03-03T08:14:21;20.40;;;14.45;;
6955;SDS011;50345;51.136;16.886;2023-03-03T08:16:51;20.85;;;12.60;;
6955;SDS011;50345;51.136;16.886;2023-03-03T08:19:16;18.63;;;13.37;;
6955;SDS011;50345;51.136;16.886;2023-03-03T08:21:42;17.37;;;12.93;;
6955;SDS011;50345;51.136;16.886;2023-03-03T08:24:08;19.73;;;14.10;;
6955;SDS011;50345;51.136;16.886;2023-03-03T08:26:33;22.03;;;14.40;;
6955;SDS011;50345;51.136;16.886;2023-03-03T08:28:59;19.00;;;13.80;;
6955;SDS011;50345;51.136;16.886;2023-03-03T08:31:25;32.63;;;15.90;;
6955;SDS011;50345;51.136;16.886;2023-03-03T08:33:51;24.07;;;16.57;;
6955;SDS011;50345;51.136;16.886;2023-03-03T08:36:17;24.27;;;15.67;;
6955;SDS011;50345;51.136;16.886;2023-03-03T08:38:42;26.00;;;16.40;;
6955;SDS011;50345;51.136;16.886;2023-03-03T08:41:08;21.37;;;14.47;;
6955;SDS011;50345;51.136;16.886;2023-03-03T08:43:34;24.47;;;14.90;;
6955;SDS011;50345;51.136;16.886;2023-03-03T08:46:00;19.53;;;14.37;;
6955;SDS011;50345;51.136;16.886;2023-03-03T08:48:27;20.08;;;14.68;;
6955;SDS011;50345;51.136;16.886;2023-03-03T08:50:53;24.02;;;14.90;;
6955;SDS011;50345;51.136;16.886;2023-03-03T08:53:20;21.27;;;14.77;;
6955;SDS011;50345;51.136;16.886;2023-03-03T08:55:47;22.05;;;14.35;;
6955;SDS011;50345;51.136;16.886;2023-03-03T08:58:13;23.40;;;14.38;;
6955;SDS011;50345;51.136;16.886;2023-03-03T09:00:41;17.10;;;13.52;;
6955;SDS011;50345;51.136;16.886;2023-03-03T09:03:07;21.88;;;14.77;;
6955;SDS011;50345;51.136;16.886;2023-03-03T09:05:34;20.47;;;14.93;;
6955;SDS011;50345;51.136;16.886;2023-03-03T09:08:02;21.30;;;14.77;;
6955;SDS011;50345;51.136;16.886;2023-03-03T09:10:28;19.50;;;13.65;;
6955;SDS011;50345;51.136;16.886;2023-03-03T09:12:56;21.67;;;14.73;;
6955;SDS011;50345;51.136;16.886;2023-03-03T09:15:32;19.05;;;13.55;;
6955;SDS011;50345;51.136;16.886;2023-03-03T09:18:04;23.98;;;14.18;;
6955;SDS011;50345;51.136;16.886;2023-03-03T09:20:45;18.83;;;13.20;;
6955;SDS011;50345;51.136;16.886;2023-03-03T09:28:41;18.75;;;13.30;;
6955;SDS011;50345;51.136;16.886;2023-03-03T09:31:15;21.27;;;14.13;;
6955;SDS011;50345;51.136;16.886;2023-03-03T09:33:52;22.33;;;15.23;;
6955;SDS011;50345;51.136;16.886;2023-03-03T09:36:28;19.73;;;13.82;;
6955;SDS011;50345;51.136;16.886;2023-03-03T09:38:59;19.33;;;14.40;;
6955;SDS011;50345;51.136;16.886;2023-03-03T09:49:49;21.90;;;15.60;;
6955;SDS011;50345;51.136;16.886;2023-03-03T09:52:39;16.60;;;13.05;;
6955;SDS011;50345;51.136;16.886;2023-03-03T09:58:50;21.33;;;13.20;;
6955;SDS011;50345;51.136;16.886;2023-03-03T10:13:13;23.40;;;15.82;;
6955;SDS011;50345;51.136;16.886;2023-03-03T10:15:56;19.73;;;13.90;;
6955;SDS011;50345;51.136;16.886;2023-03-03T10:26:37;20.88;;;14.73;;
6955;SDS011;50345;51.136;16.886;2023-03-03T10:32:04;22.95;;;15.75;;
6955;SDS011;50345;51.136;16.886;2023-03-03T10:43:31;20.15;;;14.10;;
6955;SDS011;50345;51.136;16.886;2023-03-03T10:55:12;19.75;;;12.85;;
6955;SDS011;50345;51.136;16.886;2023-03-03T10:57:48;21.30;;;14.00;;
6955;SDS011;50345;51.136;16.886;2023-03-03T11:05:45;20.40;;;14.07;;
6955;SDS011;50345;51.136;16.886;2023-03-03T11:08:20;22.27;;;14.50;;
6955;SDS011;50345;51.136;16.886;2023-03-03T11:11:17;26.80;;;16.73;;
6955;SDS011;50345;51.136;16.886;2023-03-03T11:13:53;23.15;;;15.30;;
6955;SDS011;50345;51.136;16.886;2023-03-03T11:16:30;23.70;;;14.25;;
6955;SDS011;50345;51.136;16.886;2023-03-03T11:19:11;19.55;;;13.43;;
6955;SDS011;50345;51.136;16.886;2023-03-03T11:25:15;18.55;;;12.80;;
6955;SDS011;50345;51.136;16.886;2023-03-03T11:38:52;17.88;;;12.10;;
6955;SDS011;50345;51.136;16.886;2023-03-03T11:41:38;16.15;;;12.15;;
6955;SDS011;50345;51.136;16.886;2023-03-03T11:47:13;21.83;;;14.73;;
6955;SDS011;50345;51.136;16.886;2023-03-03T11:49:53;20.33;;;13.88;;
6955;SDS011;50345;51.136;16.886;2023-03-03T11:55:38;21.10;;;12.43;;
6955;SDS011;50345;51.136;16.886;2023-03-03T11:58:11;17.27;;;13.35;;
6955;SDS011;50345;51.136;16.886;2023-03-03T12:03:38;19.15;;;12.93;;
6955;SDS011;50345;51.136;16.886;2023-03-03T12:06:22;23.40;;;15.48;;
6955;SDS011;50345;51.136;16.886;2023-03-03T12:09:00;18.15;;;12.63;;
6955;SDS011;50345;51.136;16.886;2023-03-03T12:20:31;17.60;;;12.80;;
6955;SDS011;50345;51.136;16.886;2023-03-03T12:23:17;22.60;;;12.07;;
6955;SDS011;50345;51.136;16.886;2023-03-03T12:26:07;21.67;;;14.38;;
6955;SDS011;50345;51.136;16.886;2023-03-03T12:28:53;22.90;;;15.68;;
6955;SDS011;50345;51.136;16.886;2023-03-03T12:34:39;20.60;;;14.00;;
6955;SDS011;50345;51.136;16.886;2023-03-03T12:37:19;25.77;;;14.40;;
6955;SDS011;50345;51.136;16.886;2023-03-03T12:50:39;28.67;;;16.20;;
6955;SDS011;50345;51.136;16.886;2023-03-03T12:56:00;20.77;;;13.95;;
6955;SDS011;50345;51.136;16.886;2023-03-03T13:04:10;18.10;;;13.98;;
6955;SDS011;50345;51.136;16.886;2023-03-03T13:22:54;25.58;;;16.83;;
6955;SDS011;50345;51.136;16.886;2023-03-03T13:30:51;25.75;;;17.60;;
6955;SDS011;50345;51.136;16.886;2023-03-03T13:33:57;22.90;;;17.33;;
6955;SDS011;50345;51.136;16.886;2023-03-03T13:36:25;21.00;;;15.57;;
6955;SDS011;50345;51.136;16.886;2023-03-03T13:38:59;22.52;;;16.50;;
6955;SDS011;50345;51.136;16.886;2023-03-03T13:44:07;19.23;;;14.23;;
6955;SDS011;50345;51.136;16.886;2023-03-03T13:46:42;22.05;;;14.85;;
6955;SDS011;50345;51.136;16.886;2023-03-03T13:52:14;19.83;;;14.02;;
6955;SDS011;50345;51.136;16.886;2023-03-03T13:54:52;21.70;;;14.45;;
6955;SDS011;50345;51.136;16.886;2023-03-03T14:05:30;20.38;;;14.70;;
6955;SDS011;50345;51.136;16.886;2023-03-03T14:07:59;20.63;;;13.18;;
6955;SDS011;50345;51.136;16.886;2023-03-03T14:10:32;16.73;;;12.85;;
6955;SDS011;50345;51.136;16.886;2023-03-03T14:13:03;16.75;;;13.27;;
6955;SDS011;50345;51.136;16.886;2023-03-03T14:15:34;22.48;;;13.90;;
6955;SDS011;50345;51.136;16.886;2023-03-03T14:20:57;17.73;;;12.07;;
6955;SDS011;50345;51.136;16.886;2023-03-03T14:26:14;17.20;;;12.07;;
6955;SDS011;50345;51.136;16.886;2023-03-03T14:28:41;14.93;;;10.50;;
6955;SDS011;50345;51.136;16.886;2023-03-03T14:31:14;17.13;;;12.38;;
6955;SDS011;50345;51.136;16.886;2023-03-03T14:33:42;18.77;;;13.38;;
6955;SDS011;50345;51.136;16.886;2023-03-03T14:36:10;16.45;;;11.55;;
6955;SDS011;50345;51.136;16.886;2023-03-03T14:38:38;17.33;;;13.55;;
6955;SDS011;50345;51.136;16.886;2023-03-03T14:41:13;17.55;;;12.20;;
6955;SDS011;50345;51.136;16.886;2023-03-03T14:43:41;19.63;;;13.63;;
6955;SDS011;50345;51.136;16.886;2023-03-03T14:46:22;17.70;;;12.27;;
6955;SDS011;50345;51.136;16.886;2023-03-03T14:48:56;19.08;;;12.30;;
6955;SDS011;50345;51.136;16.886;2023-03-03T14:51:25;20.65;;;13.48;;
6955;SDS011;50345;51.136;16.886;2023-03-03T14:54:18;15.32;;;12.43;;
6955;SDS011;50345;51.136;16.886;2023-03-03T14:59:20;18.70;;;13.30;;
6955;SDS011;50345;51.136;16.886;2023-03-03T15:04:36;17.80;;;13.07;;
6955;SDS011;50345;51.136;16.886;2023-03-03T15:07:14;19.08;;;13.88;;
6955;SDS011;50345;51.136;16.886;2023-03-03T15:09:59;16.92;;;13.32;;
6955;SDS011;50345;51.136;16.886;2023-03-03T15:34:13;22.83;;;16.35;;
6955;SDS011;50345;51.136;16.886;2023-03-03T15:36:57;20.08;;;15.38;;
6955;SDS011;50345;51.136;16.886;2023-03-03T15:39:49;21.10;;;16.10;;
6955;SDS011;50345;51.136;16.886;2023-03-03T15:42:31;22.50;;;16.10;;
6955;SDS011;50345;51.136;16.886;2023-03-03T15:46:14;24.23;;;16.42;;
6955;SDS011;50345;51.136;16.886;2023-03-03T16:02:24;19.45;;;13.80;;
6955;SDS011;50345;51.136;16.886;2023-03-03T16:05:13;21.85;;;16.27;;
6955;SDS011;50345;51.136;16.886;2023-03-03T16:13:29;21.65;;;14.90;;
6955;SDS011;50345;51.136;16.886;2023-03-03T16:18:38;80.10;;;51.30;;
6955;SDS011;50345;51.136;16.886;2023-03-03T16:27:05;42.60;;;29.88;;
6955;SDS011;50345;51.136;16.886;2023-03-03T16:32:52;21.15;;;15.50;;
6955;SDS011;50345;51.136;16.886;2023-03-03T16:35:33;18.38;;;14.60;;
6955;SDS011;50345;51.136;16.886;2023-03-03T16:38:17;19.50;;;14.60;;
6955;SDS011;50345;51.136;16.886;2023-03-03T16:41:09;21.55;;;18.10;;
6955;SDS011;50345;51.136;16.886;2023-03-03T16:44:03;20.60;;;14.35;;
6955;SDS011;50345;51.136;16.886;2023-03-03T16:46:54;22.65;;;15.90;;
6955;SDS011;50345;51.136;16.886;2023-03-03T16:49:36;25.52;;;16.55;;
6955;SDS011;50345;51.136;16.886;2023-03-03T16:52:18;17.58;;;14.40;;
6955;SDS011;50345;51.136;16.886;2023-03-03T16:54:54;35.17;;;23.08;;
6955;SDS011;50345;51.136;16.886;2023-03-03T16:57:46;56.00;;;31.27;;
6955;SDS011;50345;51.136;16.886;2023-03-03T17:00:19;47.58;;;25.75;;
6955;SDS011;50345;51.136;16.886;2023-03-03T17:17:27;19.02;;;13.20;;
6955;SDS011;50345;51.136;16.886;2023-03-03T17:36:11;20.27;;;16.00;;
6955;SDS011;50345;51.136;16.886;2023-03-03T17:45:07;18.67;;;14.32;;
6955;SDS011;50345;51.136;16.886;2023-03-03T17:56:09;19.95;;;13.75;;
6955;SDS011;50345;51.136;16.886;2023-03-03T17:58:51;19.70;;;14.25;;
6955;SDS011;50345;51.136;16.886;2023-03-03T18:01:48;22.08;;;14.98;;
6955;SDS011;50345;51.136;16.886;2023-03-03T18:12:56;27.17;;;17.63;;
6955;SDS011;50345;51.136;16.886;2023-03-03T18:25:56;25.90;;;16.38;;
6955;SDS011;50345;51.136;16.886;2023-03-03T18:28:35;23.42;;;16.40;;
6955;SDS011;50345;51.136;16.886;2023-03-03T18:31:01;31.65;;;22.00;;
6955;SDS011;50345;51.136;16.886;2023-03-03T18:36:36;29.88;;;20.75;;
6955;SDS011;50345;51.136;16.886;2023-03-03T18:39:15;27.10;;;17.85;;
6955;SDS011;50345;51.136;16.886;2023-03-03T18:42:48;24.80;;;16.63;;
6955;SDS011;50345;51.136;16.886;2023-03-03T18:44:54;29.02;;;17.77;;
6955;SDS011;50345;51.136;16.886;2023-03-03T18:47:21;27.40;;;18.17;;
6955;SDS011;50345;51.136;16.886;2023-03-03T18:50:40;31.38;;;20.20;;
6955;SDS011;50345;51.136;16.886;2023-03-03T18:55:50;29.67;;;19.35;;
6955;SDS011;50345;51.136;16.886;2023-03-03T19:00:44;49.80;;;33.63;;
6955;SDS011;50345;51.136;16.886;2023-03-03T19:09:03;33.97;;;23.45;;
6955;SDS011;50345;51.136;16.886;2023-03-03T19:11:49;41.33;;;23.58;;
6955;SDS011;50345;51.136;16.886;2023-03-03T19:16:41;40.60;;;26.20;;
6955;SDS011;50345;51.136;16.886;2023-03-03T19:19:12;39.15;;;23.67;;
6955;SDS011;50345;51.136;16.886;2023-03-03T19:21:41;30.67;;;21.80;;
6955;SDS011;50345;51.136;16.886;2023-03-03T19:35:03;37.65;;;24.95;;
6955;SDS011;50345;51.136;16.886;2023-03-03T19:37:42;37.47;;;26.33;;
6955;SDS011;50345;51.136;16.886;2023-03-03T19:54:44;45.47;;;31.33;;
6955;SDS011;50345;51.136;16.886;2023-03-03T20:02:59;46.10;;;30.00;;
6955;SDS011;50345;51.136;16.886;2023-03-03T20:16:57;37.47;;;24.73;;
6955;SDS011;50345;51.136;16.886;2023-03-03T20:25:46;42.60;;;28.38;;
6955;SDS011;50345;51.136;16.886;2023-03-03T20:36:32;36.50;;;24.65;;
6955;SDS011;50345;51.136;16.886;2023-03-03T20:52:47;32.47;;;21.60;;
6955;SDS011;50345;51.136;16.886;2023-03-03T20:55:43;37.05;;;25.08;;
6955;SDS011;50345;51.136;16.886;2023-03-03T20:58:41;34.80;;;24.25;;
6955;SDS011;50345;51.136;16.886;2023-03-03T21:01:24;37.78;;;24.67;;
6955;SDS011;50345;51.136;16.886;2023-03-03T21:06:47;36.45;;;25.85;;
6955;SDS011;50345;51.136;16.886;2023-03-03T21:09:20;32.38;;;22.80;;
6955;SDS011;50345;51.136;16.886;2023-03-03T21:11:46;31.50;;;21.58;;
6955;SDS011;50345;51.136;16.886;2023-03-03T21:14:16;36.97;;;22.33;;
6955;SDS011;50345;51.136;16.886;2023-03-03T21:16:45;39.10;;;26.90;;
6955;SDS011;50345;51.136;16.886;2023-03-03T21:19:11;36.27;;;24.77;;